createdAt,value
2022-08-30T00:01:29.023Z,3.22
2022-08-30T00:03:01.792Z,3.28
2022-08-30T00:04:35.547Z,3.58
2022-08-30T00:06:09.742Z,3.35
2022-08-30T00:07:41.479Z,3.53
2022-08-30T00:09:13.297Z,4.30
2022-08-30T00:10:46.098Z,3.80
2022-08-30T00:12:17.981Z,3.90
2022-08-30T00:13:51.821Z,3.80
2022-08-30T00:15:24.449Z,3.22
2022-08-30T00:16:56.405Z,3.65
2022-08-30T00:18:28.230Z,3.92
2022-08-30T00:19:59.954Z,3.70
2022-08-30T00:21:31.727Z,3.70
2022-08-30T00:23:05.371Z,3.35
2022-08-30T00:24:37.131Z,3.30
2022-08-30T00:26:08.946Z,3.33
2022-08-30T00:27:40.728Z,4.13
2022-08-30T00:29:12.484Z,3.80
2022-08-30T00:30:45.693Z,3.78
2022-08-30T00:32:18.178Z,3.47
2022-08-30T00:33:49.926Z,3.67
2022-08-30T00:35:22.757Z,3.78
2022-08-30T00:36:54.585Z,3.65
2022-08-30T00:38:26.569Z,3.45
2022-08-30T00:39:58.446Z,3.45
2022-08-30T00:41:30.204Z,3.40
2022-08-30T00:43:06.606Z,4.30
2022-08-30T00:44:38.988Z,3.95
2022-08-30T00:46:10.893Z,3.78
2022-08-30T00:47:43.534Z,3.60
2022-08-30T00:49:15.439Z,3.13
2022-08-30T00:50:51.841Z,3.13
2022-08-30T00:52:24.113Z,3.38
2022-08-30T00:53:57.012Z,3.08
2022-08-30T00:55:29.761Z,3.58
2022-08-30T00:57:02.086Z,3.38
2022-08-30T00:58:37.583Z,3.38
2022-08-30T01:00:11.306Z,3.13
2022-08-30T01:01:43.348Z,3.20
2022-08-30T01:03:16.099Z,3.47
2022-08-30T01:04:49.506Z,2.92
2022-08-30T01:06:21.498Z,3.53
2022-08-30T01:07:53.303Z,2.83
2022-08-30T01:09:25.102Z,2.90
2022-08-30T01:10:58.075Z,2.97
2022-08-30T01:12:30.322Z,2.90
2022-08-30T01:14:03.131Z,3.08
2022-08-30T01:15:35.895Z,2.70
2022-08-30T01:17:07.934Z,2.90
2022-08-30T01:18:41.019Z,3.13
2022-08-30T01:20:17.791Z,2.97
2022-08-30T01:21:54.630Z,3.10
2022-08-30T01:23:28.043Z,3.00
2022-08-30T01:25:00.930Z,3.13
2022-08-30T01:26:34.548Z,2.83
2022-08-30T01:28:09.846Z,3.13
2022-08-30T01:29:45.234Z,3.28
2022-08-30T01:31:17.122Z,3.60
2022-08-30T01:32:48.955Z,3.28
2022-08-30T01:34:20.826Z,3.20
2022-08-30T01:35:57.136Z,3.38
2022-08-30T01:37:31.600Z,3.13
2022-08-30T01:39:04.592Z,3.47
2022-08-30T01:40:37.230Z,3.70
2022-08-30T01:42:09.021Z,3.22
2022-08-30T01:43:41.410Z,2.80
2022-08-30T01:45:13.827Z,3.50
2022-08-30T01:46:47.956Z,3.35
2022-08-30T01:48:20.989Z,3.13
2022-08-30T01:49:53.548Z,3.10
2022-08-30T01:51:28.502Z,3.50
2022-08-30T01:53:01.015Z,3.53
2022-08-30T01:54:38.006Z,3.17
2022-08-30T01:56:11.206Z,3.30
2022-08-30T01:57:43.010Z,3.05
2022-08-30T01:59:14.968Z,3.30
2022-08-30T02:00:46.804Z,3.55
2022-08-30T02:02:23.039Z,3.50
2022-08-30T02:03:56.763Z,3.45
2022-08-30T02:05:28.521Z,3.83
2022-08-30T02:07:01.495Z,3.45
2022-08-30T02:08:34.476Z,2.78
2022-08-30T02:10:07.214Z,3.20
2022-08-30T02:11:39.497Z,3.05
2022-08-30T02:13:11.231Z,3.03
2022-08-30T02:14:43.453Z,3.38
2022-08-30T02:16:23.015Z,2.85
2022-08-30T02:17:55.007Z,3.15
2022-08-30T02:19:26.781Z,2.90
2022-08-30T02:20:58.501Z,2.85
2022-08-30T02:22:30.229Z,3.33
2022-08-30T02:24:01.977Z,3.33
2022-08-30T02:25:33.746Z,3.28
2022-08-30T02:27:06.262Z,3.35
2022-08-30T02:28:42.701Z,3.22
2022-08-30T02:30:21.622Z,2.72
2022-08-30T02:31:53.454Z,3.00
2022-08-30T02:33:25.298Z,2.70
2022-08-30T02:34:57.063Z,2.88
2022-08-30T02:36:28.799Z,3.08
2022-08-30T02:38:00.583Z,3.05
2022-08-30T02:39:32.601Z,2.83
2022-08-30T02:41:04.401Z,3.25
2022-08-30T02:42:36.191Z,2.92
2022-08-30T02:44:10.066Z,3.20
2022-08-30T02:45:42.512Z,2.90
2022-08-30T02:47:14.286Z,3.50
2022-08-30T02:48:46.082Z,2.70
2022-08-30T02:50:18.395Z,2.65
2022-08-30T02:51:50.572Z,2.75
2022-08-30T02:53:22.931Z,3.15
2022-08-30T02:54:55.376Z,3.30
2022-08-30T02:56:28.805Z,2.83
2022-08-30T02:58:00.564Z,2.53
2022-08-30T02:59:33.349Z,3.00
2022-08-30T03:01:06.011Z,3.00
2022-08-30T03:02:38.181Z,2.50
2022-08-30T03:04:10.126Z,3.05
2022-08-30T03:05:42.395Z,2.92
2022-08-30T03:07:16.046Z,3.00
2022-08-30T03:08:47.917Z,2.78
2022-08-30T03:10:19.810Z,2.97
2022-08-30T03:11:51.523Z,3.40
2022-08-30T03:13:24.740Z,3.10
2022-08-30T03:14:56.499Z,2.75
2022-08-30T03:16:28.310Z,2.97
2022-08-30T03:18:00.214Z,2.97
2022-08-30T03:19:31.947Z,2.78
2022-08-30T03:21:10.895Z,2.83
2022-08-30T03:22:42.700Z,3.25
2022-08-30T03:24:14.466Z,3.28
2022-08-30T03:25:46.200Z,2.83
2022-08-30T03:27:18.040Z,2.92
2022-08-30T03:28:49.918Z,2.78
2022-08-30T03:30:21.694Z,3.00
2022-08-30T03:31:54.037Z,2.67
2022-08-30T03:33:26.246Z,3.42
2022-08-30T03:34:59.881Z,3.50
2022-08-30T03:36:32.455Z,3.53
2022-08-30T03:38:04.217Z,3.42
2022-08-30T03:39:36.443Z,3.00
2022-08-30T03:41:08.229Z,3.40
2022-08-30T03:42:41.538Z,3.03
2022-08-30T03:44:15.752Z,2.95
2022-08-30T03:45:47.625Z,3.38
2022-08-30T03:47:20.407Z,3.38
2022-08-30T03:48:52.461Z,3.10
2022-08-30T03:50:24.329Z,3.17
2022-08-30T03:51:56.050Z,3.55
2022-08-30T03:53:27.788Z,3.58
2022-08-30T03:55:00.892Z,3.10
2022-08-30T03:56:32.637Z,3.65
2022-08-30T03:58:04.557Z,3.33
2022-08-30T03:59:36.320Z,3.42
2022-08-30T04:01:08.461Z,3.28
2022-08-30T04:02:40.557Z,3.15
2022-08-30T04:04:12.414Z,3.40
2022-08-30T04:05:45.374Z,3.80
2022-08-30T04:07:19.230Z,3.53
2022-08-30T04:08:51.308Z,4.15
2022-08-30T04:10:23.271Z,3.83
2022-08-30T04:11:55.057Z,3.53
2022-08-30T04:13:26.782Z,3.45
2022-08-30T04:14:58.726Z,3.45
2022-08-30T04:16:30.490Z,3.22
2022-08-30T04:18:02.292Z,3.33
2022-08-30T04:19:34.062Z,3.25
2022-08-30T04:21:06.710Z,3.30
2022-08-30T04:22:38.869Z,3.42
2022-08-30T04:24:12.098Z,3.40
2022-08-30T04:25:44.252Z,3.55
2022-08-30T04:27:16.042Z,3.20
2022-08-30T04:28:47.855Z,3.05
2022-08-30T04:30:19.735Z,3.47
2022-08-30T04:31:51.538Z,3.22
2022-08-30T04:33:24.828Z,3.10
2022-08-30T04:34:59.785Z,2.88
2022-08-30T04:36:31.525Z,3.20
2022-08-30T04:38:03.924Z,3.20
2022-08-30T04:39:35.658Z,3.15
2022-08-30T04:41:16.762Z,3.60
2022-08-30T04:42:48.599Z,3.10
2022-08-30T04:44:20.374Z,3.58
2022-08-30T04:45:53.609Z,3.22
2022-08-30T04:47:25.386Z,3.40
2022-08-30T04:48:57.175Z,3.45
2022-08-30T04:50:28.926Z,3.10
2022-08-30T04:52:00.649Z,3.60
2022-08-30T04:53:33.441Z,3.60
2022-08-30T04:55:06.450Z,3.10
2022-08-30T04:56:38.235Z,3.88
2022-08-30T04:58:11.639Z,3.25
2022-08-30T04:59:43.405Z,3.03
2022-08-30T05:01:20.136Z,3.38
2022-08-30T05:02:51.958Z,3.65
2022-08-30T05:04:24.691Z,2.97
2022-08-30T05:05:56.449Z,3.20
2022-08-30T05:07:28.321Z,3.17
2022-08-30T05:09:00.890Z,3.10
2022-08-30T05:10:32.881Z,3.20
2022-08-30T05:12:04.762Z,3.55
2022-08-30T05:13:37.159Z,3.20
2022-08-30T05:15:10.169Z,2.70
2022-08-30T05:16:42.177Z,2.83
2022-08-30T05:18:15.885Z,3.70
2022-08-30T05:19:47.619Z,3.22
2022-08-30T05:21:26.630Z,3.50
2022-08-30T05:22:58.423Z,3.22
2022-08-30T05:24:32.150Z,3.28
2022-08-30T05:26:08.852Z,3.15
2022-08-30T05:27:40.623Z,3.30
2022-08-30T05:29:12.354Z,3.35
2022-08-30T05:30:44.087Z,3.38
2022-08-30T05:32:15.840Z,3.80
2022-08-30T05:33:48.614Z,3.78
2022-08-30T05:35:25.565Z,4.30
2022-08-30T05:36:58.166Z,3.50
2022-08-30T05:38:30.713Z,3.80
2022-08-30T05:40:03.317Z,3.42
2022-08-30T05:41:39.765Z,3.85
2022-08-30T05:43:12.170Z,3.40
2022-08-30T05:44:44.357Z,3.80
2022-08-30T05:46:19.977Z,3.50
2022-08-30T05:47:51.892Z,3.92
2022-08-30T05:49:23.884Z,3.50
2022-08-30T05:51:11.644Z,3.80
2022-08-30T05:52:44.770Z,3.50
2022-08-30T05:54:17.003Z,3.30
2022-08-30T05:55:48.746Z,3.78
2022-08-30T05:57:20.734Z,3.53
2022-08-30T05:58:52.901Z,3.95
2022-08-30T06:00:24.705Z,3.47
2022-08-30T06:01:57.846Z,3.45
2022-08-30T06:03:29.958Z,3.50
2022-08-30T06:05:03.041Z,3.67
2022-08-30T06:06:37.106Z,3.97
2022-08-30T06:08:08.949Z,3.50
2022-08-30T06:09:40.699Z,4.00
2022-08-30T06:11:14.381Z,4.03
2022-08-30T06:12:46.148Z,4.05
2022-08-30T06:14:17.925Z,4.57
2022-08-30T06:15:51.273Z,4.38
2022-08-30T06:17:23.105Z,4.38
2022-08-30T06:18:56.800Z,4.00
2022-08-30T06:20:28.550Z,4.38
2022-08-30T06:22:01.030Z,4.18
2022-08-30T06:23:33.046Z,4.13
2022-08-30T06:25:05.085Z,3.95
2022-08-30T06:26:43.683Z,4.35
2022-08-30T06:28:15.823Z,3.95
2022-08-30T06:29:51.843Z,4.40
2022-08-30T06:31:25.420Z,4.10
2022-08-30T06:32:57.220Z,3.95
2022-08-30T06:34:29.644Z,4.10
2022-08-30T06:36:10.880Z,3.83
2022-08-30T06:37:43.000Z,4.40
2022-08-30T06:39:14.794Z,3.90
2022-08-30T06:40:46.600Z,4.03
2022-08-30T06:42:18.419Z,4.30
2022-08-30T06:43:50.565Z,3.75
2022-08-30T06:45:22.503Z,3.85
2022-08-30T06:46:54.383Z,3.95
2022-08-30T06:48:26.235Z,3.85
2022-08-30T06:49:58.585Z,3.92
2022-08-30T06:51:34.486Z,3.88
2022-08-30T06:53:06.666Z,4.40
2022-08-30T06:54:38.552Z,4.00
2022-08-30T06:56:16.488Z,4.03
2022-08-30T06:57:48.656Z,3.92
2022-08-30T06:59:20.452Z,3.70
2022-08-30T07:00:52.263Z,4.25
2022-08-30T07:02:24.965Z,3.88
2022-08-30T07:03:58.349Z,3.72
2022-08-30T07:05:30.073Z,3.42
2022-08-30T07:07:02.216Z,3.95
2022-08-30T07:08:34.088Z,3.33
2022-08-30T07:10:07.611Z,3.70
2022-08-30T07:11:40.577Z,3.65
2022-08-30T07:13:13.011Z,3.90
2022-08-30T07:14:44.823Z,4.10
2022-08-30T07:16:16.637Z,4.15
2022-08-30T07:18:07.275Z,3.67
2022-08-30T07:19:39.024Z,3.50
2022-08-30T07:21:14.333Z,3.95
2022-08-30T07:22:46.901Z,3.50
2022-08-30T07:24:20.451Z,3.88
2022-08-30T07:25:52.192Z,4.03
2022-08-30T07:27:23.926Z,4.05
2022-08-30T07:28:56.506Z,4.05
2022-08-30T07:30:28.347Z,4.22
2022-08-30T07:32:00.073Z,4.13
2022-08-30T07:33:32.541Z,3.97
2022-08-30T07:35:05.103Z,3.95
2022-08-30T07:36:38.875Z,4.15
2022-08-30T07:38:14.587Z,4.43
2022-08-30T07:39:47.925Z,3.92
2022-08-30T07:41:27.723Z,3.83
2022-08-30T07:43:02.274Z,3.60
2022-08-30T07:44:34.024Z,3.80
2022-08-30T07:46:08.259Z,3.75
2022-08-30T07:47:40.141Z,3.90
2022-08-30T07:49:13.081Z,4.43
2022-08-30T07:50:46.352Z,3.90
2022-08-30T07:52:18.086Z,4.15
2022-08-30T07:53:49.849Z,4.32
2022-08-30T07:55:21.767Z,4.13
2022-08-30T07:56:55.884Z,3.90
2022-08-30T07:58:27.729Z,3.97
2022-08-30T07:59:59.726Z,3.65
2022-08-30T08:01:31.673Z,4.03
2022-08-30T08:03:07.549Z,4.35
2022-08-30T08:04:39.385Z,3.90
2022-08-30T08:06:14.365Z,3.63
2022-08-30T08:07:46.461Z,4.00
2022-08-30T08:09:18.338Z,3.60
2022-08-30T08:10:50.131Z,3.42
2022-08-30T08:12:21.855Z,3.95
2022-08-30T08:13:54.745Z,3.50
2022-08-30T08:15:26.702Z,4.18
2022-08-30T08:16:58.562Z,3.33
2022-08-30T08:18:31.944Z,3.83
2022-08-30T08:20:04.839Z,3.35
2022-08-30T08:21:37.546Z,3.45
2022-08-30T08:23:09.328Z,3.70
2022-08-30T08:24:41.072Z,3.30
2022-08-30T08:26:12.855Z,3.58
2022-08-30T08:27:48.009Z,3.20
2022-08-30T08:29:19.785Z,3.50
2022-08-30T08:30:52.274Z,3.60
2022-08-30T08:32:24.039Z,3.25
2022-08-30T08:33:56.846Z,3.50
2022-08-30T08:35:28.681Z,3.35
2022-08-30T08:37:00.490Z,2.97
2022-08-30T08:38:32.540Z,3.40
2022-08-30T08:40:06.133Z,3.10
2022-08-30T08:41:42.143Z,2.88
2022-08-30T08:43:21.321Z,2.90
2022-08-30T08:45:11.564Z,2.50
2022-08-30T08:47:03.840Z,2.67
2022-08-30T08:49:00.306Z,3.00
2022-08-30T08:50:32.797Z,2.80
2022-08-30T08:52:24.845Z,2.72
2022-08-30T08:54:04.598Z,2.70
2022-08-30T08:55:40.272Z,2.50
2022-08-30T08:57:15.290Z,2.53
2022-08-30T08:58:53.601Z,2.80
2022-08-30T09:00:25.800Z,2.60
2022-08-30T09:02:03.178Z,2.97
2022-08-30T09:03:35.833Z,2.50
2022-08-30T09:05:11.176Z,2.70
2022-08-30T09:06:57.465Z,2.60
2022-08-30T09:08:29.254Z,2.70
2022-08-30T09:10:01.099Z,2.75
2022-08-30T09:11:34.682Z,2.30
2022-08-30T09:13:06.437Z,2.35
2022-08-30T09:14:46.968Z,2.30
2022-08-30T09:16:51.760Z,2.60
2022-08-30T09:18:46.944Z,2.70
2022-08-30T09:20:38.433Z,2.45
2022-08-30T09:22:26.526Z,2.60
2022-08-30T09:24:11.167Z,2.70
2022-08-30T09:26:00.142Z,2.30
2022-08-30T09:27:40.621Z,2.35
2022-08-30T09:29:17.758Z,2.00
2022-08-30T09:31:06.780Z,2.40
2022-08-30T09:32:44.002Z,2.20
2022-08-30T09:34:18.938Z,2.40
2022-08-30T09:35:55.031Z,2.20
2022-08-30T09:37:40.020Z,1.90
2022-08-30T09:39:19.142Z,2.45
2022-08-30T09:40:54.934Z,2.70
2022-08-30T09:42:29.245Z,2.20
2022-08-30T09:44:06.897Z,1.90
2022-08-30T09:45:42.297Z,1.80
2022-08-30T09:47:29.514Z,1.80
2022-08-30T09:49:03.415Z,2.00
2022-08-30T09:50:36.874Z,2.30
2022-08-30T09:52:28.031Z,1.95
2022-08-30T09:54:19.751Z,1.98
2022-08-30T09:56:07.731Z,1.98
2022-08-30T09:58:05.482Z,1.70
2022-08-30T09:59:48.951Z,2.10
2022-08-30T10:01:28.011Z,1.40
2022-08-30T10:03:22.782Z,1.63
2022-08-30T10:05:29.561Z,1.95
2022-08-30T10:07:09.535Z,1.77
2022-08-30T10:08:58.964Z,1.48
2022-08-30T10:10:51.175Z,1.60
2022-08-30T10:13:34.486Z,1.30
2022-08-30T10:15:24.696Z,1.52
2022-08-30T10:17:39.271Z,1.25
2022-08-30T10:19:40.322Z,1.30
2022-08-30T10:21:21.905Z,1.65
2022-08-30T10:23:09.991Z,1.50
2022-08-30T10:24:53.889Z,1.80
2022-08-30T10:26:36.840Z,1.48
2022-08-30T10:28:16.975Z,1.67
2022-08-30T10:29:59.455Z,1.77
2022-08-30T10:31:54.491Z,1.60
2022-08-30T10:33:32.939Z,1.60
2022-08-30T10:35:09.899Z,1.60
2022-08-30T10:36:54.074Z,1.58
2022-08-30T10:38:31.799Z,1.50
2022-08-30T10:40:30.087Z,1.60
2022-08-30T10:42:26.643Z,1.80
2022-08-30T10:44:04.447Z,1.75
2022-08-30T10:45:40.915Z,1.73
2022-08-30T10:47:44.760Z,1.92
2022-08-30T10:49:21.454Z,1.50
2022-08-30T10:50:59.205Z,2.15
2022-08-30T10:52:38.996Z,1.70
2022-08-30T10:54:31.308Z,1.92
2022-08-30T10:56:08.671Z,1.63
2022-08-30T10:57:40.975Z,1.60
2022-08-30T10:59:19.691Z,1.50
2022-08-30T11:01:28.459Z,1.90
2022-08-30T11:03:20.203Z,1.73
2022-08-30T11:05:10.412Z,1.65
2022-08-30T11:06:56.183Z,1.70
2022-08-30T11:08:53.247Z,1.85
2022-08-30T11:10:41.167Z,2.00
2022-08-30T11:12:38.094Z,1.60
2022-08-30T11:14:17.621Z,1.40
2022-08-30T11:15:57.930Z,1.90
2022-08-30T11:17:35.755Z,1.77
2022-08-30T11:19:26.118Z,1.95
2022-08-30T11:21:18.326Z,1.70
2022-08-30T11:23:32.803Z,1.80
2022-08-30T11:25:09.847Z,1.60
2022-08-30T11:26:45.324Z,1.63
2022-08-30T11:28:35.152Z,1.85
2022-08-30T11:30:26.921Z,1.60
2022-08-30T11:32:23.764Z,1.70
2022-08-30T11:34:01.115Z,1.73
2022-08-30T11:35:48.052Z,1.70
2022-08-30T11:37:38.653Z,1.77
2022-08-30T11:39:47.356Z,1.77
2022-08-30T11:41:31.729Z,1.35
2022-08-30T11:43:49.270Z,1.70
2022-08-30T11:45:25.515Z,1.90
2022-08-30T11:47:01.213Z,1.70
2022-08-30T11:48:55.303Z,1.67
2022-08-30T11:50:39.605Z,1.38
2022-08-30T11:52:48.883Z,1.80
2022-08-30T11:54:36.858Z,1.27
2022-08-30T11:56:42.297Z,1.33
2022-08-30T11:58:29.445Z,1.48
2022-08-30T12:00:29.122Z,1.65
2022-08-30T12:02:03.221Z,1.80
2022-08-30T12:03:38.444Z,1.90
2022-08-30T12:05:51.195Z,1.95
2022-08-30T12:08:01.691Z,1.80
2022-08-30T12:09:33.523Z,1.90
2022-08-30T12:11:31.409Z,1.88
2022-08-30T12:13:03.599Z,2.15
2022-08-30T12:14:48.108Z,2.13
2022-08-30T12:16:37.085Z,2.00
2022-08-30T12:18:28.739Z,2.20
2022-08-30T12:20:00.955Z,2.60
2022-08-30T12:21:44.699Z,2.28
2022-08-30T12:23:44.429Z,2.20
2022-08-30T12:25:40.575Z,2.33
2022-08-30T12:27:41.561Z,2.60
2022-08-30T12:29:21.467Z,2.55
2022-08-30T12:30:53.604Z,2.53
2022-08-30T12:32:26.338Z,2.08
2022-08-30T12:34:01.508Z,1.90
2022-08-30T12:35:34.057Z,2.17
2022-08-30T12:37:10.904Z,1.88
2022-08-30T12:38:45.082Z,2.10
2022-08-30T12:40:21.131Z,2.40
2022-08-30T12:41:54.211Z,2.28
2022-08-30T12:43:40.247Z,1.90
2022-08-30T12:45:17.510Z,1.90
2022-08-30T12:46:58.942Z,2.20
2022-08-30T12:48:37.199Z,2.30
2022-08-30T12:50:12.217Z,2.22
2022-08-30T12:51:47.334Z,2.17
2022-08-30T12:53:25.443Z,2.40
2022-08-30T12:55:17.127Z,2.25
2022-08-30T12:57:19.652Z,1.90
2022-08-30T12:58:55.811Z,2.45
2022-08-30T13:00:34.137Z,2.22
2022-08-30T13:02:20.314Z,2.45
2022-08-30T13:03:59.746Z,2.08
2022-08-30T13:05:44.948Z,2.20
2022-08-30T13:07:35.539Z,2.13
2022-08-30T13:09:07.685Z,2.55
2022-08-30T13:11:04.416Z,2.08
2022-08-30T13:12:40.445Z,2.15
2022-08-30T13:14:30.202Z,2.08
2022-08-30T13:16:11.933Z,2.42
2022-08-30T13:17:45.587Z,2.58
2022-08-30T13:19:34.313Z,2.28
2022-08-30T13:21:21.249Z,2.15
2022-08-30T13:23:10.850Z,2.10
2022-08-30T13:24:42.691Z,2.30
2022-08-30T13:26:15.302Z,2.00
2022-08-30T13:27:55.250Z,1.60
2022-08-30T13:29:27.857Z,1.88
2022-08-30T13:30:59.606Z,2.03
2022-08-30T13:32:38.996Z,1.80
2022-08-30T13:34:10.993Z,2.00
2022-08-30T13:35:42.994Z,2.28
2022-08-30T13:39:18.369Z,2.08
2022-08-30T13:40:53.565Z,1.92
2022-08-30T13:42:32.708Z,1.92
2022-08-30T13:44:13.413Z,1.83
2022-08-30T13:45:45.663Z,1.75
2022-08-30T13:47:35.272Z,1.67
2022-08-30T13:51:04.526Z,1.80
2022-08-30T13:52:36.282Z,1.80
2022-08-30T13:54:08.057Z,1.83
2022-08-30T13:55:41.534Z,1.80
2022-08-30T13:57:14.481Z,1.40
2022-08-30T13:58:46.851Z,1.70
2022-08-30T14:00:21.908Z,1.77
2022-08-30T14:02:11.551Z,1.60
2022-08-30T14:07:29.164Z,1.65
2022-08-30T14:09:04.366Z,1.58
2022-08-30T14:10:46.720Z,1.63
2022-08-30T14:12:52.412Z,1.55
2022-08-30T14:14:15.104Z,1.95
2022-08-30T14:16:26.506Z,1.58
2022-08-30T14:17:42.540Z,1.30
2022-08-30T14:19:16.369Z,1.50
2022-08-30T14:20:48.097Z,1.70
2022-08-30T14:22:20.815Z,1.80
2022-08-30T14:23:57.820Z,1.50
2022-08-30T14:25:29.855Z,1.42
2022-08-30T14:27:02.357Z,1.30
2022-08-30T14:28:34.113Z,1.33
2022-08-30T14:30:08.844Z,1.55
2022-08-30T14:31:41.565Z,1.80
2022-08-30T14:33:13.671Z,1.48
2022-08-30T14:34:46.021Z,1.60
2022-08-30T14:36:19.807Z,1.40
2022-08-30T14:37:52.519Z,1.52
2022-08-30T14:39:24.514Z,1.60
2022-08-30T14:40:56.234Z,1.67
2022-08-30T14:42:30.766Z,1.50
2022-08-30T14:44:02.699Z,1.55
2022-08-30T14:45:34.611Z,1.60
2022-08-30T14:47:07.160Z,1.60
2022-08-30T14:48:39.208Z,1.48
2022-08-30T14:50:11.183Z,1.40
2022-08-30T14:51:46.288Z,1.30
2022-08-30T14:53:18.208Z,1.50
2022-08-30T14:54:54.210Z,1.52
2022-08-30T14:56:28.804Z,1.40
2022-08-30T14:58:00.762Z,1.85
2022-08-30T14:59:32.474Z,1.30
2022-08-30T15:01:10.040Z,1.20
2022-08-30T15:02:44.264Z,1.30
2022-08-30T15:04:16.546Z,1.30
2022-08-30T15:05:50.554Z,1.60
2022-08-30T15:07:24.913Z,1.25
2022-08-30T15:08:56.730Z,1.42
2022-08-30T15:10:28.498Z,1.58
2022-08-30T15:12:01.468Z,1.10
2022-08-30T15:13:34.339Z,1.30
2022-08-30T15:15:06.631Z,1.40
2022-08-30T15:16:41.367Z,1.50
2022-08-30T15:18:13.230Z,1.27
2022-08-30T15:19:45.597Z,1.50
2022-08-30T15:21:38.343Z,1.20
2022-08-30T15:23:10.216Z,1.50
2022-08-30T15:24:43.559Z,1.70
2022-08-30T15:26:21.332Z,1.30
2022-08-30T15:27:55.809Z,1.52
2022-08-30T15:29:30.408Z,1.30
2022-08-30T15:31:08.590Z,1.38
2022-08-30T15:32:41.242Z,1.42
2022-08-30T15:34:17.102Z,1.42
2022-08-30T15:35:49.379Z,1.48
2022-08-30T15:37:22.669Z,1.40
2022-08-30T15:38:59.542Z,1.15
2022-08-30T15:40:33.429Z,1.25
2022-08-30T15:42:06.289Z,1.38
2022-08-30T15:43:39.143Z,1.45
2022-08-30T15:45:11.243Z,1.48
2022-08-30T15:46:45.408Z,1.15
2022-08-30T15:48:17.311Z,1.20
2022-08-30T15:49:57.405Z,1.60
2022-08-30T15:51:41.238Z,1.45
2022-08-30T15:53:13.745Z,1.70
2022-08-30T15:54:48.332Z,1.35
2022-08-30T15:56:20.777Z,1.40
2022-08-30T15:57:52.689Z,1.58
2022-08-30T15:59:26.085Z,1.30
2022-08-30T16:00:57.910Z,1.27
2022-08-30T16:02:30.055Z,1.15
2022-08-30T16:04:02.366Z,1.33
2022-08-30T16:05:34.196Z,1.33
2022-08-30T16:07:07.658Z,1.30
2022-08-30T16:08:39.809Z,1.20
2022-08-30T16:10:11.574Z,1.20
2022-08-30T16:11:44.373Z,1.38
2022-08-30T16:13:16.587Z,1.40
2022-08-30T16:14:48.473Z,1.20
2022-08-30T16:16:21.228Z,1.38
2022-08-30T16:17:53.093Z,1.30
2022-08-30T16:19:24.889Z,1.10
2022-08-30T16:21:11.405Z,1.17
2022-08-30T16:22:43.622Z,1.70
2022-08-30T16:24:22.747Z,1.40
2022-08-30T16:25:54.933Z,1.13
2022-08-30T16:27:35.059Z,1.30
2022-08-30T16:29:08.920Z,1.58
2022-08-30T16:30:40.730Z,1.30
2022-08-30T16:32:15.766Z,1.38
2022-08-30T16:33:47.693Z,1.20
2022-08-30T16:35:24.728Z,1.33
2022-08-30T16:36:56.441Z,1.48
2022-08-30T16:38:28.714Z,1.13
2022-08-30T16:40:00.499Z,1.25
2022-08-30T16:41:32.745Z,1.20
2022-08-30T16:43:08.209Z,1.63
2022-08-30T16:44:40.282Z,1.40
2022-08-30T16:46:15.425Z,1.30
2022-08-30T16:47:47.692Z,1.40
2022-08-30T16:49:19.409Z,1.30
2022-08-30T16:50:51.137Z,1.20
2022-08-30T16:52:22.900Z,1.23
2022-08-30T16:54:00.118Z,1.48
2022-08-30T16:55:35.986Z,1.20
2022-08-30T16:57:07.956Z,1.23
2022-08-30T16:58:40.830Z,1.20
2022-08-30T17:00:13.755Z,1.10
2022-08-30T17:01:45.669Z,1.23
2022-08-30T17:05:12.163Z,1.00
2022-08-30T17:06:44.991Z,1.30
2022-08-30T17:08:17.425Z,0.90
2022-08-30T17:09:50.189Z,0.90
2022-08-30T17:11:22.285Z,1.17
2022-08-30T17:12:54.139Z,1.00
2022-08-30T17:14:28.129Z,1.10
2022-08-30T17:16:01.115Z,1.25
2022-08-30T17:17:33.854Z,1.20
2022-08-30T17:19:07.639Z,1.20
2022-08-30T17:20:39.416Z,1.13
2022-08-30T17:22:13.605Z,1.20
2022-08-30T17:23:45.379Z,1.00
2022-08-30T17:25:17.268Z,0.90
2022-08-30T17:26:49.311Z,1.25
2022-08-30T17:28:22.077Z,1.05
2022-08-30T17:29:54.221Z,1.23
2022-08-30T17:31:29.091Z,1.40
2022-08-30T17:33:01.357Z,1.23
2022-08-30T17:34:33.170Z,1.50
2022-08-30T17:36:08.665Z,1.10
2022-08-30T17:37:40.769Z,1.30
2022-08-30T17:39:13.054Z,1.30
2022-08-30T17:40:45.366Z,1.10
2022-08-30T17:42:17.145Z,1.10
2022-08-30T17:43:49.028Z,1.15
2022-08-30T17:45:21.471Z,1.33
2022-08-30T17:46:55.604Z,1.45
2022-08-30T17:48:27.362Z,1.40
2022-08-30T17:49:59.831Z,1.20
2022-08-30T17:51:32.445Z,1.20
2022-08-30T17:53:04.282Z,1.20
2022-08-30T17:54:36.562Z,1.20
2022-08-30T17:56:09.997Z,1.20
2022-08-30T17:57:41.964Z,1.40
2022-08-30T17:59:17.792Z,1.05
2022-08-30T18:00:50.888Z,1.35
2022-08-30T18:02:25.187Z,1.23
2022-08-30T18:04:05.997Z,1.40
2022-08-30T18:05:38.500Z,1.10
2022-08-30T18:07:15.994Z,1.17
2022-08-30T18:08:47.702Z,1.55
2022-08-30T18:10:19.495Z,1.40
2022-08-30T18:12:00.183Z,1.30
2022-08-30T18:13:32.721Z,1.30
2022-08-30T18:15:12.551Z,1.40
2022-08-30T18:16:49.821Z,1.20
2022-08-30T18:18:26.093Z,1.10
2022-08-30T18:19:58.050Z,1.30
2022-08-30T18:21:29.999Z,1.38
2022-08-30T18:23:01.722Z,1.63
2022-08-30T18:24:34.315Z,1.30
2022-08-30T18:26:06.532Z,1.42
2022-08-30T18:27:39.085Z,1.10
2022-08-30T18:29:12.005Z,1.42
2022-08-30T18:30:45.382Z,1.60
2022-08-30T18:32:17.183Z,1.20
2022-08-30T18:33:49.340Z,1.25
2022-08-30T18:35:21.812Z,1.40
2022-08-30T18:36:53.842Z,1.30
2022-08-30T18:38:25.540Z,1.58
2022-08-30T18:39:58.927Z,1.55
2022-08-30T18:41:32.756Z,1.50
2022-08-30T18:43:08.046Z,1.58
2022-08-30T18:44:40.303Z,1.52
2022-08-30T18:46:18.023Z,1.55
2022-08-30T18:47:50.590Z,1.48
2022-08-30T18:49:22.331Z,1.50
2022-08-30T18:50:55.428Z,1.45
2022-08-30T18:52:28.228Z,1.40
2022-08-30T18:53:59.946Z,1.20
2022-08-30T18:55:32.373Z,1.50
2022-08-30T18:57:05.038Z,1.80
2022-08-30T18:58:37.017Z,1.27
2022-08-30T19:00:10.529Z,1.30
2022-08-30T19:01:44.274Z,1.52
2022-08-30T19:03:16.186Z,1.50
2022-08-30T19:04:49.181Z,1.60
2022-08-30T19:06:20.987Z,1.42
2022-08-30T19:07:55.133Z,1.20
2022-08-30T19:09:27.125Z,1.40
2022-08-30T19:11:01.915Z,1.70
2022-08-30T19:12:37.059Z,1.63
2022-08-30T19:14:08.953Z,1.77
2022-08-30T19:15:40.689Z,2.10
2022-08-30T19:17:13.303Z,2.03
2022-08-30T19:18:44.999Z,1.98
2022-08-30T19:20:21.085Z,1.60
2022-08-30T19:21:52.850Z,1.90
2022-08-30T19:23:27.172Z,2.05
2022-08-30T19:25:07.589Z,2.20
2022-08-30T19:26:40.672Z,2.08
2022-08-30T19:28:12.914Z,2.08
2022-08-30T19:29:44.711Z,2.00
2022-08-30T19:31:16.978Z,2.08
2022-08-30T19:32:49.228Z,2.17
2022-08-30T19:34:21.364Z,2.15
2022-08-30T19:35:54.654Z,2.38
2022-08-30T19:37:27.094Z,2.22
2022-08-30T19:38:58.802Z,2.70
2022-08-30T19:40:31.703Z,2.42
2022-08-30T19:42:04.428Z,2.70
2022-08-30T19:43:36.454Z,2.38
2022-08-30T19:45:09.098Z,2.25
2022-08-30T19:46:40.850Z,2.90
2022-08-30T19:48:13.315Z,2.67
2022-08-30T19:49:45.912Z,2.70
2022-08-30T19:51:17.683Z,2.38
2022-08-30T19:52:54.095Z,2.42
2022-08-30T19:54:26.190Z,2.85
2022-08-30T19:55:58.021Z,2.17
2022-08-30T19:57:29.803Z,2.70
2022-08-30T19:59:01.794Z,2.67
2022-08-30T20:00:33.728Z,2.75
2022-08-30T20:02:08.571Z,2.70
2022-08-30T20:03:40.452Z,2.58
2022-08-30T20:05:12.530Z,2.75
2022-08-30T20:06:45.475Z,2.40
2022-08-30T20:08:17.217Z,2.75
2022-08-30T20:09:49.927Z,2.83
2022-08-30T20:11:21.707Z,2.60
2022-08-30T20:12:55.014Z,2.67
2022-08-30T20:14:26.963Z,2.50
2022-08-30T20:15:59.438Z,2.80
2022-08-30T20:17:53.351Z,2.50
2022-08-30T20:19:27.473Z,3.10
2022-08-30T20:21:01.230Z,2.95
2022-08-30T20:22:33.751Z,2.92
2022-08-30T20:24:09.705Z,3.00
2022-08-30T20:24:23.330Z,1.20
2022-08-30T20:25:42.086Z,2.95
2022-08-30T20:27:13.805Z,2.90
2022-08-30T20:28:45.667Z,3.13
2022-08-30T20:30:18.641Z,3.28
2022-08-30T20:31:50.391Z,3.28
2022-08-30T20:33:24.487Z,2.85
2022-08-30T20:34:56.287Z,3.03
2022-08-30T20:36:28.093Z,3.10
2022-08-30T20:38:06.287Z,3.42
2022-08-30T20:39:38.147Z,3.50
2022-08-30T20:41:16.884Z,3.33
2022-08-30T20:42:48.701Z,2.95
2022-08-30T20:44:20.461Z,2.90
2022-08-30T20:45:52.568Z,2.80
2022-08-30T20:47:24.770Z,3.13
2022-08-30T20:48:56.497Z,3.00
2022-08-30T20:50:28.234Z,2.88
2022-08-30T20:51:59.937Z,3.05
2022-08-30T20:53:31.805Z,3.40
2022-08-30T20:55:04.653Z,3.03
2022-08-30T20:56:36.550Z,2.92
2022-08-30T20:58:08.500Z,2.70
2022-08-30T20:59:40.256Z,3.10
2022-08-30T21:01:13.656Z,3.28
2022-08-30T21:02:46.954Z,3.25
2022-08-30T21:04:20.200Z,3.10
2022-08-30T21:05:51.990Z,2.88
2022-08-30T21:07:23.725Z,2.90
2022-08-30T21:08:55.432Z,3.15
2022-08-30T21:10:27.377Z,2.97
2022-08-30T21:11:59.478Z,2.95
2022-08-30T21:13:31.825Z,3.15
2022-08-30T21:15:27.074Z,2.85
2022-08-30T21:16:56.993Z,2.60
2022-08-30T21:18:33.168Z,2.90
2022-08-30T21:20:05.457Z,2.70
2022-08-30T21:21:37.229Z,2.85
2022-08-30T21:23:09.397Z,3.05